createdAt,value
2018-05-07T00:00:46.507Z,94538.91
2018-05-07T00:03:15.130Z,94544.17
2018-05-07T00:05:43.523Z,94545.31
2018-05-07T00:08:11.950Z,94542.77
2018-05-07T00:10:40.413Z,94539.94
2018-05-07T00:13:08.815Z,94528.45
2018-05-07T00:15:37.293Z,94526.35
2018-05-07T00:18:05.946Z,94514.05
2018-05-07T00:20:34.371Z,94514.03
2018-05-07T00:23:02.760Z,94518.62
2018-05-07T00:25:31.603Z,94521.55
2018-05-07T00:28:00.072Z,94511.64
2018-05-07T00:30:28.494Z,94490.75
2018-05-07T00:32:57.244Z,94486.73
2018-05-07T00:35:25.672Z,94476.62
2018-05-07T00:37:54.099Z,94471.39
2018-05-07T00:40:22.546Z,94468.63
2018-05-07T00:42:50.969Z,94473.42
2018-05-07T00:45:19.399Z,94481.74
2018-05-07T00:47:48.034Z,94477.02
2018-05-07T00:50:16.491Z,94477.89
2018-05-07T00:52:44.893Z,94481.09
2018-05-07T00:55:22.471Z,94477.48
2018-05-07T00:57:50.887Z,94483.77
2018-05-07T01:00:19.288Z,94503.94
2018-05-07T01:02:47.738Z,94508.97
2018-05-07T01:05:16.148Z,94501.59
2018-05-07T01:07:44.695Z,94497.97
2018-05-07T01:10:13.157Z,94494.86
2018-05-07T01:12:41.601Z,94470.95
2018-05-07T01:15:10.001Z,94485.22
2018-05-07T01:17:38.831Z,94484.20
2018-05-07T01:20:07.277Z,94487.33
2018-05-07T01:22:35.719Z,94488.16
2018-05-07T01:25:04.169Z,94487.22
2018-05-07T01:27:32.619Z,94485.91
2018-05-07T01:30:01.044Z,94488.23
2018-05-07T01:32:29.833Z,94500.03
2018-05-07T01:34:58.247Z,94499.09
2018-05-07T01:37:26.647Z,94490.48
2018-05-07T01:39:55.281Z,94497.69
2018-05-07T01:42:23.720Z,94496.48
2018-05-07T01:44:52.126Z,94495.66
2018-05-07T01:47:21.041Z,94500.59
2018-05-07T01:49:49.416Z,94505.83
2018-05-07T01:52:17.819Z,94500.84
2018-05-07T01:54:46.573Z,94509.48
2018-05-07T01:57:14.993Z,94515.36
2018-05-07T01:59:43.399Z,94512.12
2018-05-07T02:02:11.848Z,94512.48
2018-05-07T02:04:40.268Z,94511.75
2018-05-07T02:07:08.684Z,94512.02
2018-05-07T02:09:37.471Z,94524.85
2018-05-07T02:12:05.907Z,94531.00
2018-05-07T02:14:34.344Z,94528.69
2018-05-07T02:17:02.951Z,94525.88
2018-05-07T02:19:31.386Z,94527.03
2018-05-07T02:21:59.871Z,94527.71
2018-05-07T02:24:28.555Z,94506.61
2018-05-07T02:26:56.980Z,94531.73
2018-05-07T02:29:25.375Z,94533.50
2018-05-07T02:31:53.827Z,94540.45
2018-05-07T02:34:22.232Z,94572.24
2018-05-07T02:36:50.644Z,94546.75
2018-05-07T02:39:19.460Z,94542.47
2018-05-07T02:41:47.856Z,94549.34
2018-05-07T02:44:16.326Z,94543.97
2018-05-07T02:46:45.008Z,94547.34
2018-05-07T02:49:13.409Z,94547.78
2018-05-07T02:51:41.799Z,94547.33
2018-05-07T02:54:10.550Z,94544.86
2018-05-07T02:56:38.960Z,94538.81
2018-05-07T02:59:07.373Z,94534.95
2018-05-07T03:01:35.990Z,94535.42
2018-05-07T03:04:04.397Z,94541.42
2018-05-07T03:06:32.810Z,94536.24
2018-05-07T03:09:01.553Z,94540.80
2018-05-07T03:11:29.991Z,94539.09
2018-05-07T03:13:58.409Z,94535.08
2018-05-07T03:16:27.218Z,94540.41
2018-05-07T03:18:55.650Z,94538.09
2018-05-07T03:21:24.063Z,94543.45
2018-05-07T03:23:52.795Z,94544.80
2018-05-07T03:26:21.214Z,94549.05
2018-05-07T03:28:49.627Z,94551.87
2018-05-07T03:31:18.411Z,94552.36
2018-05-07T03:33:46.822Z,94552.69
2018-05-07T03:36:15.228Z,94557.20
2018-05-07T03:38:43.679Z,94549.84
2018-05-07T03:41:12.107Z,94558.48
2018-05-07T03:43:40.536Z,94555.56
2018-05-07T03:46:09.027Z,94563.41
2018-05-07T03:48:37.613Z,94560.70
2018-05-07T03:51:06.014Z,94563.16
2018-05-07T03:53:34.454Z,94557.44
2018-05-07T03:56:02.878Z,94559.47
2018-05-07T03:58:31.376Z,94550.06
2018-05-07T04:00:59.827Z,94559.42
2018-05-07T04:03:28.245Z,94533.98
2018-05-07T04:05:56.731Z,94560.70
2018-05-07T04:08:25.275Z,94565.19
2018-05-07T04:10:53.707Z,94563.58
2018-05-07T04:13:22.165Z,94560.16
2018-05-07T04:15:50.584Z,94558.66
2018-05-07T04:18:30.980Z,94575.13
2018-05-07T04:21:11.296Z,94552.48
2018-05-07T04:23:51.551Z,94573.43
2018-05-07T04:26:19.974Z,94576.23
2018-05-07T04:28:48.425Z,94573.42
2018-05-07T04:31:16.851Z,94556.96
2018-05-07T04:33:45.305Z,94574.63
2018-05-07T04:36:13.787Z,94575.86
2018-05-07T04:38:42.259Z,94568.82
2018-05-07T04:41:10.730Z,94575.88
2018-05-07T04:43:39.175Z,94577.91
2018-05-07T04:46:07.834Z,94577.20
2018-05-07T04:48:36.400Z,94578.19
2018-05-07T04:51:04.839Z,94582.80
2018-05-07T04:53:33.320Z,94581.34
2018-05-07T04:56:01.725Z,94591.37
2018-05-07T04:58:30.209Z,94582.16
2018-05-07T05:00:58.622Z,94584.69
2018-05-07T05:03:27.067Z,94565.81
2018-05-07T05:05:55.459Z,94588.80
2018-05-07T05:08:23.867Z,94592.76
2018-05-07T05:10:52.316Z,94585.49
2018-05-07T05:13:20.751Z,94586.15
2018-05-07T05:15:49.136Z,94573.83
2018-05-07T05:18:17.582Z,94591.98
2018-05-07T05:20:46.024Z,94567.55
2018-05-07T05:23:14.471Z,94594.67
2018-05-07T05:25:42.872Z,94585.75
2018-05-07T05:28:11.340Z,94599.77
2018-05-07T05:30:39.763Z,94589.86
2018-05-07T05:33:08.221Z,94568.05
2018-05-07T05:35:36.674Z,94597.33
2018-05-07T05:38:05.148Z,94601.66
2018-05-07T05:40:33.544Z,94600.74
2018-05-07T05:43:01.977Z,94605.23
2018-05-07T05:45:30.415Z,94600.41
2018-05-07T05:47:58.816Z,94602.55
2018-05-07T05:50:27.319Z,94606.25
2018-05-07T05:52:55.850Z,94611.24
2018-05-07T05:55:24.392Z,94611.23
2018-05-07T05:57:52.791Z,94609.00
2018-05-07T06:00:21.215Z,94611.94
2018-05-07T06:02:49.654Z,94614.38
2018-05-07T06:05:18.092Z,94614.34
2018-05-07T06:07:46.511Z,94608.16
2018-05-07T06:10:15.022Z,94609.31
2018-05-07T06:12:43.471Z,94608.91
2018-05-07T06:15:11.898Z,94609.70
2018-05-07T06:17:40.352Z,94588.33
2018-05-07T06:20:08.788Z,94607.80
2018-05-07T06:22:37.244Z,94606.84
2018-05-07T06:25:05.655Z,94615.84
2018-05-07T06:27:34.115Z,94614.25
2018-05-07T06:30:02.555Z,94609.86
2018-05-07T06:32:31.005Z,94613.84
2018-05-07T06:34:59.424Z,94611.42
2018-05-07T06:37:27.884Z,94605.93
2018-05-07T06:39:56.328Z,94603.55
2018-05-07T06:42:24.746Z,94610.47
2018-05-07T06:44:53.174Z,94613.77
2018-05-07T06:47:21.650Z,94616.32
2018-05-07T06:49:50.117Z,94612.78
2018-05-07T06:52:18.573Z,94610.69
2018-05-07T06:54:47.021Z,94607.79
2018-05-07T06:57:15.549Z,94603.22
2018-05-07T06:59:44.115Z,94607.02
2018-05-07T07:02:12.719Z,94603.06
2018-05-07T07:04:41.055Z,94603.57
2018-05-07T07:07:09.503Z,94604.21
2018-05-07T07:09:37.893Z,94598.30
2018-05-07T07:12:06.363Z,94600.80
2018-05-07T07:14:34.771Z,94603.59
2018-05-07T07:17:03.310Z,94603.93
2018-05-07T07:19:31.814Z,94601.61
2018-05-07T07:22:00.209Z,94587.89
2018-05-07T07:24:28.647Z,94584.99
2018-05-07T07:26:57.052Z,94592.36
2018-05-07T07:29:25.438Z,94590.06
2018-05-07T07:31:53.847Z,94575.05
2018-05-07T07:34:22.267Z,94570.22
2018-05-07T07:36:50.719Z,94569.45
2018-05-07T07:39:19.138Z,94572.47
2018-05-07T07:41:47.579Z,94570.80
2018-05-07T07:44:16.032Z,94576.23
2018-05-07T07:46:44.461Z,94575.49
2018-05-07T07:49:12.896Z,94578.29
2018-05-07T07:51:41.367Z,94578.19
2018-05-07T07:54:09.843Z,94571.78
2018-05-07T07:56:38.235Z,94574.55
2018-05-07T07:59:06.635Z,94580.25
2018-05-07T08:01:35.100Z,94573.42
2018-05-07T08:04:03.489Z,94577.74
2018-05-07T08:06:31.971Z,94560.86
2018-05-07T08:09:00.391Z,94577.15
2018-05-07T08:11:28.779Z,94578.23
2018-05-07T08:13:57.244Z,94558.02
2018-05-07T08:16:25.660Z,94574.66
2018-05-07T08:18:54.139Z,94577.25
2018-05-07T08:21:22.620Z,94576.55
2018-05-07T08:23:51.057Z,94572.75
2018-05-07T08:26:19.469Z,94566.66
2018-05-07T08:28:47.911Z,94560.83
2018-05-07T08:31:16.451Z,94560.36
2018-05-07T08:33:44.892Z,94558.50
2018-05-07T08:36:13.307Z,94557.17
2018-05-07T08:38:41.755Z,94553.97
2018-05-07T08:41:10.166Z,94554.36
2018-05-07T08:43:38.623Z,94565.42
2018-05-07T08:46:07.018Z,94565.69
2018-05-07T08:48:35.580Z,94561.42
2018-05-07T08:51:04.499Z,94561.42
2018-05-07T08:53:32.904Z,94549.48
2018-05-07T08:56:01.431Z,94544.03
2018-05-07T08:58:29.873Z,94564.97
2018-05-07T09:00:58.414Z,94560.89
2018-05-07T09:03:27.048Z,94563.55
2018-05-07T09:05:55.475Z,94546.86
2018-05-07T09:08:23.889Z,94570.77
2018-05-07T09:10:52.343Z,94574.61
2018-05-07T09:13:20.743Z,94574.41
2018-05-07T09:15:49.211Z,94578.00
2018-05-07T09:18:17.679Z,94578.95
2018-05-07T09:20:46.109Z,94571.77
2018-05-07T09:23:14.655Z,94578.81
2018-05-07T09:25:43.037Z,94572.70
2018-05-07T09:28:11.452Z,94574.91
2018-05-07T09:30:39.932Z,94578.20
2018-05-07T09:33:08.329Z,94572.56
2018-05-07T09:35:36.763Z,94568.00
2018-05-07T09:38:05.200Z,94568.16
2018-05-07T09:40:33.601Z,94571.26
2018-05-07T09:43:02.125Z,94566.98
2018-05-07T09:45:30.466Z,94562.81
2018-05-07T09:47:58.906Z,94565.24
2018-05-07T09:50:27.325Z,94563.19
2018-05-07T09:52:55.881Z,94556.69
2018-05-07T09:55:24.348Z,94559.73
2018-05-07T09:58:02.568Z,94557.45
2018-05-07T10:00:37.496Z,94561.58
2018-05-07T10:03:05.952Z,94553.48
2018-05-07T10:05:34.785Z,94556.64
2018-05-07T10:08:03.243Z,94555.27
2018-05-07T10:10:31.644Z,94548.91
2018-05-07T10:13:00.099Z,94551.97
2018-05-07T10:15:28.536Z,94557.67
2018-05-07T10:17:56.969Z,94553.73
2018-05-07T10:20:25.569Z,94552.04
2018-05-07T10:22:54.007Z,94551.50
2018-05-07T10:25:22.433Z,94552.31
2018-05-07T10:27:50.866Z,94551.86
2018-05-07T10:30:19.253Z,94566.94
2018-05-07T10:32:47.696Z,94539.73
2018-05-07T10:35:16.152Z,94536.99
2018-05-07T10:37:44.596Z,94546.66
2018-05-07T10:40:13.019Z,94546.25
2018-05-07T10:42:41.486Z,94541.84
2018-05-07T10:45:09.884Z,94540.30
2018-05-07T10:47:38.432Z,94522.44
2018-05-07T10:50:06.989Z,94543.87
2018-05-07T10:52:35.415Z,94535.00
2018-05-07T10:55:03.895Z,94527.38
2018-05-07T10:57:32.316Z,94538.44
2018-05-07T11:00:00.915Z,94531.47
2018-05-07T11:02:29.362Z,94528.36
2018-05-07T11:04:57.811Z,94526.22
2018-05-07T11:07:26.376Z,94531.09
2018-05-07T11:09:54.681Z,94538.23
2018-05-07T11:12:23.079Z,94528.91
2018-05-07T11:14:51.532Z,94533.00
2018-05-07T11:17:19.931Z,94529.54
2018-05-07T11:19:48.370Z,94528.19
2018-05-07T11:22:16.830Z,94523.83
2018-05-07T11:24:45.331Z,94529.53
2018-05-07T11:27:13.794Z,94526.31
2018-05-07T11:29:42.285Z,94518.17
2018-05-07T11:32:10.725Z,94512.02
2018-05-07T11:34:39.155Z,94510.98
2018-05-07T11:37:11.979Z,94508.04
2018-05-07T11:39:42.762Z,94504.02
2018-05-07T11:42:12.111Z,94499.15
2018-05-07T11:44:40.774Z,94494.91
2018-05-07T11:47:09.330Z,94488.81
2018-05-07T11:49:37.727Z,94488.30
2018-05-07T11:52:06.203Z,94483.47
2018-05-07T11:54:34.675Z,94483.17
2018-05-07T11:57:03.171Z,94480.19
2018-05-07T11:59:31.608Z,94484.33
2018-05-07T12:02:00.018Z,94478.25
2018-05-07T12:04:28.570Z,94473.80
2018-05-07T12:06:57.145Z,94476.83
2018-05-07T12:09:25.727Z,94472.97
2018-05-07T12:11:54.127Z,94474.48
2018-05-07T12:14:22.608Z,94476.20
2018-05-07T12:16:51.033Z,94461.36
2018-05-07T12:19:19.442Z,94461.38
2018-05-07T12:21:48.154Z,94455.58
2018-05-07T12:24:16.556Z,94454.47
2018-05-07T12:26:45.020Z,94435.66
2018-05-07T12:29:13.390Z,94449.19
2018-05-07T12:31:41.904Z,94444.27
2018-05-07T12:34:10.435Z,94436.22
2018-05-07T12:36:38.907Z,94432.26
2018-05-07T12:39:07.307Z,94428.05
2018-05-07T12:41:35.719Z,94428.18
2018-05-07T12:44:04.184Z,94425.18
2018-05-07T12:46:32.571Z,94426.84
2018-05-07T12:49:01.034Z,94402.11
2018-05-07T12:51:29.443Z,94411.84
2018-05-07T12:53:57.883Z,94409.34
2018-05-07T12:56:26.396Z,94411.44
2018-05-07T12:58:54.877Z,94411.70
2018-05-07T13:01:23.297Z,94402.84
2018-05-07T13:03:51.721Z,94389.89
2018-05-07T13:06:20.168Z,94395.97
2018-05-07T13:08:48.567Z,94396.36
2018-05-07T13:11:16.959Z,94378.45
2018-05-07T13:13:45.411Z,94397.53
2018-05-07T13:16:13.831Z,94386.23
2018-05-07T13:18:42.326Z,94389.45
2018-05-07T13:21:10.775Z,94381.55
2018-05-07T13:23:39.191Z,94375.28
2018-05-07T13:26:07.950Z,94380.75
2018-05-07T13:28:36.362Z,94379.78
2018-05-07T13:31:04.795Z,94373.86
2018-05-07T13:33:33.223Z,94356.94
2018-05-07T13:36:01.663Z,94354.47
2018-05-07T13:38:30.069Z,94365.89
2018-05-07T13:40:58.540Z,94361.48
2018-05-07T13:43:26.963Z,94364.34
2018-05-07T13:45:55.417Z,94358.52
2018-05-07T13:48:23.945Z,94353.94
2018-05-07T13:50:52.369Z,94343.50
2018-05-07T13:53:20.787Z,94344.39
2018-05-07T13:55:49.202Z,94326.23
2018-05-07T13:58:17.713Z,94337.87
2018-05-07T14:00:46.156Z,94334.68
2018-05-07T14:03:14.814Z,94332.61
2018-05-07T14:05:43.261Z,94319.67
2018-05-07T14:08:11.748Z,94318.18
2018-05-07T14:10:40.340Z,94298.51
2018-05-07T14:13:08.755Z,94308.19
2018-05-07T14:15:37.187Z,94304.27
2018-05-07T14:18:05.605Z,94298.30
2018-05-07T14:20:34.098Z,94298.94
2018-05-07T14:23:02.491Z,94296.05
2018-05-07T14:25:30.971Z,94286.88
2018-05-07T14:27:59.353Z,94278.62
2018-05-07T14:30:27.885Z,94299.64
2018-05-07T14:32:56.371Z,94296.17
2018-05-07T14:35:24.827Z,94294.22
2018-05-07T14:37:53.542Z,94285.73
2018-05-07T14:40:22.239Z,94298.77
2018-05-07T14:42:50.674Z,94290.42
2018-05-07T14:45:19.165Z,94288.93
2018-05-07T14:47:48.005Z,94288.39
2018-05-07T14:50:16.476Z,94293.42
2018-05-07T14:52:44.875Z,94292.31
2018-05-07T14:55:13.651Z,94286.75
2018-05-07T14:57:42.086Z,94292.27
2018-05-07T15:00:10.494Z,94273.94
2018-05-07T15:02:39.408Z,94283.55
2018-05-07T15:05:07.836Z,94283.45
2018-05-07T15:07:36.223Z,94280.05
2018-05-07T15:10:04.989Z,94277.26
2018-05-07T15:12:33.470Z,94277.03
2018-05-07T15:15:01.895Z,94276.70
2018-05-07T15:17:30.612Z,94276.34
2018-05-07T15:19:59.069Z,94279.07
2018-05-07T15:22:27.486Z,94268.66
2018-05-07T15:24:56.243Z,94266.28
2018-05-07T15:27:24.632Z,94264.91
2018-05-07T15:29:53.060Z,94260.95
2018-05-07T15:32:21.492Z,94260.65
2018-05-07T15:34:49.978Z,94272.81
2018-05-07T15:37:18.388Z,94262.06
2018-05-07T15:39:46.792Z,94274.34
2018-05-07T15:42:15.514Z,94269.10
2018-05-07T15:44:43.900Z,94266.48
2018-05-07T15:47:12.446Z,94278.08
2018-05-07T15:49:41.237Z,94258.14
2018-05-07T15:52:09.742Z,94250.26
2018-05-07T15:54:38.175Z,94255.70
2018-05-07T15:57:07.959Z,94261.42
2018-05-07T15:59:36.391Z,94255.27
2018-05-07T16:02:04.876Z,94236.14
2018-05-07T16:04:33.325Z,94254.55
2018-05-07T16:07:01.751Z,94228.92
2018-05-07T16:09:30.143Z,94245.86
2018-05-07T16:11:58.938Z,94246.09
2018-05-07T16:14:27.389Z,94255.30
2018-05-07T16:16:55.829Z,94253.09
2018-05-07T16:19:24.615Z,94257.22
2018-05-07T16:21:53.119Z,94248.83
2018-05-07T16:24:21.553Z,94251.00
2018-05-07T16:26:50.076Z,94251.84
2018-05-07T16:29:18.547Z,94257.62
2018-05-07T16:31:46.979Z,94253.63
2018-05-07T16:34:15.416Z,94249.05
2018-05-07T16:36:43.889Z,94256.03
2018-05-07T16:39:12.436Z,94258.22
2018-05-07T16:41:40.832Z,94263.01
2018-05-07T16:44:09.435Z,94264.81
2018-05-07T16:46:37.836Z,94264.21
2018-05-07T16:49:06.375Z,94268.77
2018-05-07T16:51:34.724Z,94271.69
2018-05-07T16:54:03.097Z,94277.47
2018-05-07T16:56:31.576Z,94255.45
2018-05-07T16:59:00.028Z,94285.68
2018-05-07T17:01:28.471Z,94280.86
2018-05-07T17:03:56.923Z,94291.13
2018-05-07T17:06:25.379Z,94290.64
2018-05-07T17:08:53.837Z,94298.80
2018-05-07T17:11:22.210Z,94290.84
2018-05-07T17:13:50.768Z,94288.97
2018-05-07T17:16:19.180Z,94290.89
2018-05-07T17:18:47.571Z,94293.97
2018-05-07T17:21:16.160Z,94307.16
2018-05-07T17:23:44.605Z,94296.84
2018-05-07T17:26:13.012Z,94294.78
2018-05-07T17:28:41.482Z,94297.69
2018-05-07T17:31:09.971Z,94301.01
2018-05-07T17:33:38.458Z,94299.93
2018-05-07T17:36:06.872Z,94288.55
2018-05-07T17:38:35.305Z,94305.08
2018-05-07T17:41:03.736Z,94309.36
2018-05-07T17:43:32.135Z,94308.91
2018-05-07T17:46:12.504Z,94311.84
2018-05-07T17:48:52.821Z,94318.03
2018-05-07T17:51:21.294Z,94318.58
2018-05-07T17:53:49.804Z,94323.09
2018-05-07T17:56:18.207Z,94322.52
2018-05-07T17:58:46.679Z,94319.84
2018-05-07T18:01:15.224Z,94323.19
2018-05-07T18:03:44.975Z,94326.03
2018-05-07T18:06:13.543Z,94325.38
2018-05-07T18:08:41.953Z,94333.57
2018-05-07T18:11:11.198Z,94332.97
2018-05-07T18:13:39.717Z,94332.77
2018-05-07T18:16:08.146Z,94333.40
2018-05-07T18:18:36.560Z,94333.13
2018-05-07T18:21:05.094Z,94335.56
2018-05-07T18:23:33.560Z,94333.53
2018-05-07T18:26:02.180Z,94336.19
2018-05-07T18:28:30.556Z,94334.16
2018-05-07T18:30:58.990Z,94336.21
2018-05-07T18:33:27.416Z,94339.01
2018-05-07T18:35:55.825Z,94342.02
2018-05-07T18:38:24.466Z,94336.67
2018-05-07T18:40:52.993Z,94331.41
2018-05-07T18:43:21.460Z,94330.01
2018-05-07T18:45:49.999Z,94325.69
2018-05-07T18:48:18.722Z,94332.83
2018-05-07T18:50:47.160Z,94328.94
2018-05-07T18:53:16.315Z,94314.48
2018-05-07T18:55:44.899Z,94334.92
2018-05-07T18:58:14.180Z,94331.44
2018-05-07T19:00:42.599Z,94332.20
2018-05-07T19:03:11.104Z,94334.00
2018-05-07T19:05:39.512Z,94331.50
2018-05-07T19:08:07.926Z,94336.33
2018-05-07T19:10:36.407Z,94335.71
2018-05-07T19:13:04.845Z,94331.45
2018-05-07T19:15:33.285Z,94343.45
2018-05-07T19:18:02.848Z,94333.09
2018-05-07T19:20:31.270Z,94340.77
2018-05-07T19:22:59.743Z,94341.20
2018-05-07T19:25:28.234Z,94348.32
2018-05-07T19:27:56.788Z,94343.42
2018-05-07T19:30:25.199Z,94331.34
2018-05-07T19:32:53.604Z,94345.30
2018-05-07T19:35:22.111Z,94333.45
2018-05-07T19:37:50.628Z,94334.92
2018-05-07T19:40:19.092Z,94341.23
2018-05-07T19:42:47.546Z,94342.10
2018-05-07T19:45:16.004Z,94337.03
2018-05-07T19:47:44.409Z,94342.64
2018-05-07T19:50:12.867Z,94341.42
2018-05-07T19:52:41.401Z,94333.64
2018-05-07T19:55:10.007Z,94332.19
2018-05-07T19:57:38.477Z,94335.71
2018-05-07T20:00:06.941Z,94336.54
2018-05-07T20:02:35.347Z,94334.88
2018-05-07T20:05:03.763Z,94340.20
2018-05-07T20:07:32.594Z,94334.87
2018-05-07T20:10:01.102Z,94330.47
2018-05-07T20:12:29.655Z,94330.43
2018-05-07T20:14:58.059Z,94318.48
2018-05-07T20:17:26.510Z,94319.34
2018-05-07T20:19:54.990Z,94311.70
2018-05-07T20:22:23.548Z,94290.52
2018-05-07T20:24:51.994Z,94306.38
2018-05-07T20:27:20.456Z,94310.61
2018-05-07T20:29:48.881Z,94309.69
2018-05-07T20:32:17.405Z,94314.69
2018-05-07T20:34:45.812Z,94314.13
2018-05-07T20:37:14.228Z,94312.50
2018-05-07T20:39:42.725Z,94294.86
2018-05-07T20:42:11.101Z,94315.52
2018-05-07T20:44:39.555Z,94308.80
2018-05-07T20:47:08.014Z,94308.11
2018-05-07T20:49:36.453Z,94309.21
2018-05-07T20:52:05.096Z,94305.86
2018-05-07T20:54:33.508Z,94295.86
2018-05-07T20:57:01.963Z,94314.83
2018-05-07T20:59:30.402Z,94320.19
2018-05-07T21:01:58.902Z,94315.87
2018-05-07T21:04:27.364Z,94317.28
2018-05-07T21:06:55.813Z,94308.80
2018-05-07T21:09:24.260Z,94303.28
2018-05-07T21:11:52.718Z,94307.95
2018-05-07T21:14:21.165Z,94307.13
2018-05-07T21:16:49.577Z,94311.77
2018-05-07T21:19:18.055Z,94304.48
2018-05-07T21:21:46.495Z,94311.30
2018-05-07T21:24:14.896Z,94304.78
2018-05-07T21:26:43.384Z,94311.49
2018-05-07T21:29:11.805Z,94305.33
2018-05-07T21:31:40.258Z,94308.09
2018-05-07T21:34:08.672Z,94306.19
2018-05-07T21:36:37.128Z,94299.09
2018-05-07T21:39:05.562Z,94306.84
2018-05-07T21:41:34.054Z,94302.05
2018-05-07T21:44:02.439Z,94302.71
2018-05-07T21:46:30.928Z,94307.22
2018-05-07T21:48:59.367Z,94296.88
2018-05-07T21:51:27.836Z,94292.70
2018-05-07T21:53:56.233Z,94287.09
2018-05-07T21:56:24.715Z,94283.20
2018-05-07T21:58:53.159Z,94286.98
2018-05-07T22:01:21.599Z,94291.70
2018-05-07T22:03:49.999Z,94287.81
2018-05-07T22:06:18.421Z,94287.69
2018-05-07T22:08:46.813Z,94286.11
2018-05-07T22:11:15.241Z,94278.34
2018-05-07T22:13:45.623Z,94277.09
2018-05-07T22:16:14.069Z,94283.16
2018-05-07T22:18:42.477Z,94284.61
2018-05-07T22:21:10.925Z,94280.77
2018-05-07T22:23:39.379Z,94271.89
2018-05-07T22:26:07.843Z,94271.16
2018-05-07T22:28:36.219Z,94267.48
2018-05-07T22:31:04.668Z,94264.94
2018-05-07T22:33:33.115Z,94262.52
2018-05-07T22:36:01.560Z,94254.20
2018-05-07T22:38:30.002Z,94264.77
2018-05-07T22:40:58.424Z,94257.89
2018-05-07T22:43:26.888Z,94256.89
2018-05-07T22:45:55.435Z,94256.44
2018-05-07T22:48:23.895Z,94212.50
2018-05-07T22:50:52.366Z,94252.05
2018-05-07T22:53:20.740Z,94244.08
2018-05-07T22:55:49.248Z,94248.34
2018-05-07T22:58:17.660Z,94243.18
2018-05-07T23:00:46.111Z,94239.68
2018-05-07T23:03:14.593Z,94241.05
2018-05-07T23:05:43.023Z,94239.14
2018-05-07T23:08:11.495Z,94234.68
2018-05-07T23:10:39.962Z,94237.23
2018-05-07T23:13:08.359Z,94232.43
2018-05-07T23:15:36.803Z,94219.83
2018-05-07T23:18:05.211Z,94203.77
2018-05-07T23:20:33.668Z,94232.91
2018-05-07T23:23:02.140Z,94235.15
2018-05-07T23:25:30.564Z,94227.66
2018-05-07T23:27:58.997Z,94234.81
2018-05-07T23:30:27.396Z,94227.36
2018-05-07T23:32:55.895Z,94226.84
2018-05-07T23:35:24.306Z,94228.34
2018-05-07T23:37:52.747Z,94230.44
2018-05-07T23:40:21.179Z,94231.55
2018-05-07T23:42:49.637Z,94224.57
2018-05-07T23:45:18.122Z,94229.31
2018-05-07T23:47:46.579Z,94223.58
2018-05-07T23:50:14.984Z,94217.19
2018-05-07T23:52:43.425Z,94218.61
2018-05-07T23:55:11.810Z,94215.22
2018-05-07T23:57:40.239Z,94215.52
